默认 日期 大小 文件数 浏览量 最新下载 xml
arrested磁力链接相关资源由用户搜索指令自动获取,结果来源于网络,本站不存储任何资料,亦不承担任何责任,请于24小时内删除,搜索到1187个磁力,用时4ms。
    {"RARBG.txt": 30, "arrested.development.s04e20.remix.1080p.web.x264-skgtv.mkv": 1249584206, "arrested.development.s04e20.remix.1080p.web.x264-skgtv.nfo": 7551}
创建时间: 2019-01-02 15:55:19 大小:1.16 GB 文件数量:3 热度:5 最近下载:2023-04-22 21:40:31
    ... WWW.TORRENTING.COM.txt": 84, "Arrested.Development.S04E07.REMIX.720p.HEVC ... .x265-MeGusta.mkv": 236603653, "Arrested.Development.S04E07.REMIX.720p.HEVC ...
创建时间: 2019-01-02 16:44:22 大小:230.06 MB 文件数量:7 热度:5 最近下载:2023-04-22 22:40:08
    {"RARBG.txt": 30, "arrested.development.s04e21.remix.1080p.web.x264-skgtv.mkv": 1073441319, "arrested.development.s04e21.remix.1080p.web.x264-skgtv.nfo": 7552}
创建时间: 2019-01-03 03:42:56 大小:1023.72 MB 文件数量:3 热度:5 最近下载:2022-11-12 09:31:37
    ... .BDMux.x264-NovaRip.mkv": 251237240, "Arrested.Development.1x04.Decisione.Chiave.ITA ... .BDMux.x264-NovaRip.mkv": 249667921, "Arrested.Development.1x06.Visite.Coniugali.ITA ... .BDMux.x264-NovaRip.mkv": 243251335, "Arrested.Development.1x05.Campagna.Di.Beneficenza ...
创建时间: 2019-01-03 19:45:40 大小:5.15 GB 文件数量:22 热度:5 最近下载:2022-11-15 19:42:09
    ... DeeJayAhmed.mkv": 271152039, "Arrested.Development.S04E02.720p.5 ... DeeJayAhmed.mkv": 239728105, "Arrested.Development.S04E03.720p.5 ... DeeJayAhmed.mkv": 247014471, "Arrested.Development.S04E04.720p.5 ... DeeJayAhmed.mkv": 267647407, "Arrested.Development.S04E05.720p.5 ...
创建时间: 2019-01-04 09:36:18 大小:3.91 GB 文件数量:18 热度:5 最近下载:2022-11-15 20:25:27
    {"RARBG.txt": 30, "arrested.development.s04e11.remix.1080p.web.x264-skgtv.mkv": 799797252, "arrested.development.s04e11.remix.1080p.web.x264-skgtv.nfo": 7550}
创建时间: 2019-01-05 00:11:30 大小:762.75 MB 文件数量:3 热度:2 最近下载:2022-11-12 10:44:17
    {"RARBG.txt": 30, "arrested.development.s04e17.remix.1080p.web.x264-skgtv.mkv": 871905143, "arrested.development.s04e17.remix.1080p.web.x264-skgtv.nfo": 7550}
创建时间: 2019-01-05 09:58:09 大小:831.52 MB 文件数量:3 热度:3 最近下载:2022-11-12 10:13:07
    {"arrested.m3u": 255, "04-Roxanne.mp3": ... , "06-Arrested.mp3": 5445632, "Arrested back.jpg": 596003, "Arrested front.jpg": 583302, "Arrested front2 ...
创建时间: 2019-01-05 16:16:15 大小:91.43 MB 文件数量:14 热度:5 最近下载:2022-11-15 20:46:09
    ... bia.mkv": 1559422517, "arrested.development.s01e02.1080p.bluray. ... bia.mkv": 1561194688, "arrested.development.s01e03.1080p.bluray. ... bia.mkv": 1561428536, "arrested.development.s01e04.1080p.bluray. ... bia.mkv": 1560805162, "arrested.development.s01e05.1080p.bluray. ...
创建时间: 2019-01-05 16:54:54 大小:77.05 GB 文件数量:53 热度:9 最近下载:2024-08-21 04:12:01
    ... .BDRip.x264-ARCHiViST": {"Proof": {"arrested.development.s01e01.internal.bdrip.x264 ... .BDRip.x264-ARCHiViST": {"Proof": {"arrested.development.s01e02.internal.bdrip.x264 ... .BDRip.x264-ARCHiViST": {"Proof": {"arrested.development.s01e03.internal.bdrip.x264 ...
创建时间: 2019-01-05 18:34:42 大小:4.74 GB 文件数量:68 热度:4 最近下载:2022-11-12 08:38:42
    ... ": 248369625, "发展受阻.Arrested.Development.S01E02.HR-HDTV.1024x576 ... ": 252645418, "发展受阻.Arrested.Development.S01E03.HR-HDTV.1024x576 ... ": 253874047, "发展受阻.Arrested.Development.S01E04.HR-HDTV.1024x576 ... ": 249090657, "发展受阻.Arrested.Development.S01E05.HR-HDTV.1024x576 ...
创建时间: 2019-01-05 21:09:00 大小:5.55 GB 文件数量:22 热度:62 最近下载:2025-10-11 21:23:03
    ... www.Speed.cd.txt": 97, "Arrested.Development.S05E02.720p.WEB.x264 ... -METCON.mkv": 484475249, "arrested.development.s05e02.720p.web.x264 ...
创建时间: 2019-01-05 21:33:58 大小:465.87 MB 文件数量:7 热度:4 最近下载:2022-11-12 10:41:44
    {"Arrested.Development.S01E01.DVDrip.ITA-ENG.#onair.avi": 287881510, "Arrested.Development.S01E01.DVDrip.ITA-ENG.#onair.srt": 63540}
创建时间: 2019-01-06 00:53:30 大小:274.61 MB 文件数量:2 热度:4 最近下载:2022-11-12 10:38:45
    ... ": 381310887, "发展受阻.Arrested.Development.S04E02.HR-HDTV.1024x576 ... ": 320513571, "发展受阻.Arrested.Development.S04E03.HR-HDTV.1024x576 ... ": 326447985, "发展受阻.Arrested.Development.S04E04.HR-HDTV.1024x576 ... ": 359107209, "发展受阻.Arrested.Development.S04E05.HR-HDTV.1024x576 ...
创建时间: 2019-01-06 02:53:23 大小:5.42 GB 文件数量:15 热度:44 最近下载:2025-10-11 21:23:02
    {"RARBG.txt": 30, "arrested.development.s04e09.remix.1080p.web.x264-skgtv.mkv": 912356919, "arrested.development.s04e09.remix.1080p.web.x264-skgtv.nfo": 7550}
创建时间: 2019-01-06 17:21:57 大小:870.1 MB 文件数量:3 热度:4 最近下载:2022-11-12 12:38:27
    ... www.Speed.cd.txt": 97, "arrested.development.s04e11.remix.720p.web ... .x264-skgtv.mkv": 441000819, "arrested.development.s04e11.remix.720p.web ...
创建时间: 2019-01-10 18:09:20 大小:424.77 MB 文件数量:7 热度:3 最近下载:2022-11-12 08:38:29
    ... www.Speed.cd.txt": 97, "Arrested.Development.S05E01.720p.WEB.x264 ... -METCON.mkv": 407315080, "arrested.development.s05e01.720p.web.x264 ...
创建时间: 2019-01-12 09:15:07 大小:391.38 MB 文件数量:7 热度:5 最近下载:2022-11-12 10:49:52
    {"Downloaded From PublicHD.SE.txt": 93, "Arrested.Development.S04E10.720p.WEBRip.AAC2.0.x264-PublicHD.mkv": 647725300}
创建时间: 2019-01-12 12:37:26 大小:617.72 MB 文件数量:2 热度:4 最近下载:2022-11-15 19:39:31
    ... Of... - 14 - Tennessee.flac": 31660904, "Arrested Development - 3 Years, 5 Months ... ... - 03 - People Everyday.flac": 24314336, "Arrested Development - 3 Years, 5 Months ... ... - 07 - Raining Revolution.flac": 22494836, "Arrested Development - 3 Years, 5 Months ...
创建时间: 2019-01-14 15:35:05 大小:351.25 MB 文件数量:17 热度:5 最近下载:2025-09-24 13:54:01
    {"www.Torrenting.com.txt": 382, "First Read This Guide.txt": 382, "Arrested.Development.S04E05.WEBRip.x264.AAC-DiDee.mp4": 366812298}
创建时间: 2019-01-14 15:39:27 大小:349.82 MB 文件数量:3 热度:5 最近下载:2022-11-15 20:27:47